No particular awareness of the weather is required.    There are no Weather-warnings


Meteo18 Weather Cam more information Meteo18 Weather Cam


Thunder radar more information blitzortung!


Rain radar more information rain snow radar


Visit our other weather sites:

Template documentation
and downloads

And another site



Weather Underground History page Text

Daily Summary for May 5, 2017 Units:  English    Metric   Both
« Previous Day
Next Day »
Daily Weekly Monthly Yearly Custom
  High: Low: Average:
Temperature: TemperatureC °F 4.9 °F 13 °F
Dew Point: DewpointC °F 4.2 °F 7.5 °F
Humidity: Humidity % 46 % 72 %
Wind Speed: WindSpeedKMH mph 0.0 mph 4.9 mph
Wind Gust: WindSpeedGustKMH mph - -
Wind:- - East
Pressure: PressurehPa in 1009.0 in -
Precipitation: 0.0 in    
Historical Graphs
 
 
Tabular Data for May 5, 2017
Time Temperature Dew Point Pressure Wind Wind Speed Wind Gust Humidity Rainfall Rate (Hourly)
TemperatureC °F DewpointC °F PressurehPa in Calm     Humidity % HourlyPrecipMM in
00:02 8.6 °F 7.1 °F 1018.8 in Calm   1.6 mph 90 % 0.0 in
00:07 8.3 °F 6.6 °F 1018.8 in Calm   1.6 mph 89 % 0.0 in
00:12 7.9 °F 6.2 °F 1018.8 in Calm   1.6 mph 89 % 0.0 in
00:17 7.8 °F 6.4 °F 1018.8 in Calm     91 % 0.0 in
00:22 7.9 °F 6.7 °F 1018.8 in Calm   1.6 mph 92 % 0.0 in
00:32 7.4 °F 6.2 °F 1018.8 in West 1.6 mph 1.6 mph 92 % 0.0 in
00:37 7.2 °F 6.0 °F 1018.8 in Calm   1.6 mph 92 % 0.0 in
00:42 7.3 °F 6.4 °F 1018.8 in Calm   1.6 mph 94 % 0.0 in
00:47 7.5 °F 6.4 °F 1018.8 in WNW 3.2 mph 3.2 mph 93 % 0.0 in
00:52 7.3 °F 6.2 °F 1018.8 in WNW 1.6 mph 3.2 mph 93 % 0.0 in
00:57 7.6 °F 6.7 °F 1018.8 in Calm   3.2 mph 94 % 0.0 in
01:02 7.5 °F 6.4 °F 1018.8 in NW 1.6 mph 3.2 mph 93 % 0.0 in
01:07 7.3 °F 6.2 °F 1018.8 in NNW 1.6 mph 1.6 mph 93 % 0.0 in
01:12 7.1 °F 5.9 °F 1018.8 in NNW 1.6 mph 3.2 mph 92 % 0.0 in
01:17 6.9 °F 5.8 °F 1018.8 in Calm   3.2 mph 93 % 0.0 in
01:22 6.9 °F 5.8 °F 1018.8 in Calm   3.2 mph 93 % 0.0 in
01:27 6.5 °F 5.3 °F 1018.8 in North 1.6 mph 3.2 mph 92 % 0.0 in
01:32 6.2 °F 5.0 °F 1018.8 in Calm   3.2 mph 92 % 0.0 in
01:37 6.3 °F 5.3 °F 1018.5 in Calm   3.2 mph 93 % 0.0 in
01:42 6.3 °F 5.3 °F 1018.5 in NW 1.6 mph 3.2 mph 93 % 0.0 in
01:47 6.3 °F 5.4 °F 1018.5 in WNW 1.6 mph 3.2 mph 94 % 0.0 in
01:52 6.2 °F 5.3 °F 1018.5 in WNW 1.6 mph 3.2 mph 94 % 0.0 in
01:57 6.2 °F 5.3 °F 1018.5 in Calm   1.6 mph 94 % 0.0 in
02:02 6.4 °F 5.7 °F 1018.5 in Calm   1.6 mph 95 % 0.0 in
02:12 6.8 °F 6.1 °F 1018.2 in Calm     95 % 0.0 in
02:17 6.7 °F 5.8 °F 1018.2 in North 1.6 mph 3.2 mph 94 % 0.0 in
02:22 6.7 °F 5.8 °F 1018.2 in North 1.6 mph 3.2 mph 94 % 0.0 in
02:27 6.7 °F 5.8 °F 1018.2 in NNE 1.6 mph 3.2 mph 94 % 0.0 in
02:32 6.6 °F 5.7 °F 1018.2 in Calm   3.2 mph 94 % 0.0 in
02:37 6.5 °F 5.6 °F 1018.2 in Calm   3.2 mph 94 % 0.0 in
02:42 6.4 °F 5.5 °F 1018.2 in Calm   3.2 mph 94 % 0.0 in
02:47 6.2 °F 5.2 °F 1018.2 in Calm   1.6 mph 93 % 0.0 in
02:52 6.3 °F 5.6 °F 1017.8 in Calm   1.6 mph 95 % 0.0 in
02:57 6.3 °F 5.6 °F 1018.2 in Calm   1.6 mph 95 % 0.0 in
03:02 6.3 °F 5.4 °F 1018.2 in Calm   1.6 mph 94 % 0.0 in
03:07 6.3 °F 5.4 °F 1018.2 in Calm   1.6 mph 94 % 0.0 in
03:12 6.4 °F 5.7 °F 1018.2 in NNW 1.6 mph   95 % 0.0 in
03:22 6.4 °F 5.5 °F 1018.2 in Calm   1.6 mph 94 % 0.0 in
03:27 6.3 °F 5.6 °F 1018.2 in Calm   1.6 mph 95 % 0.0 in
03:32 6.2 °F 5.3 °F 1017.8 in Calm     94 % 0.0 in
03:37 5.9 °F 5.0 °F 1017.8 in Calm     94 % 0.0 in
03:42 5.8 °F 4.9 °F 1017.8 in Calm     94 % 0.0 in
03:47 5.9 °F 5.2 °F 1017.8 in Calm     95 % 0.0 in
03:52 5.9 °F 5.2 °F 1017.8 in Calm     95 % 0.0 in
03:57 5.7 °F 4.8 °F 1018.2 in Calm     94 % 0.0 in
04:02 5.8 °F 5.1 °F 1017.8 in NNW 1.6 mph   95 % 0.0 in
04:07 5.7 °F 5.0 °F 1017.8 in North 1.6 mph 3.2 mph 95 % 0.0 in
04:12 5.9 °F 5.3 °F 1017.8 in North 1.6 mph 3.2 mph 96 % 0.0 in
04:17 6.2 °F 5.6 °F 1017.8 in Calm   3.2 mph 96 % 0.0 in
04:22 6.1 °F 5.4 °F 1017.8 in Calm   1.6 mph 95 % 0.0 in
04:27 5.8 °F 4.9 °F 1017.8 in Calm   1.6 mph 94 % 0.0 in
04:32 5.7 °F 5.0 °F 1017.8 in Calm     95 % 0.0 in
04:37 5.7 °F 5.0 °F 1017.8 in Calm     95 % 0.0 in
04:42 5.8 °F 5.1 °F 1017.8 in Calm     95 % 0.0 in
04:47 5.9 °F 5.2 °F 1017.8 in Calm     95 % 0.0 in
04:52 6.0 °F 5.3 °F 1017.8 in Calm     95 % 0.0 in
04:57 5.8 °F 4.9 °F 1017.8 in Calm     94 % 0.0 in
05:02 5.4 °F 4.5 °F 1018.2 in Calm     94 % 0.0 in
05:12 5.4 °F 4.7 °F 1017.8 in Calm     95 % 0.0 in
05:17 5.3 °F 4.4 °F 1017.8 in Calm     94 % 0.0 in
05:22 5.4 °F 4.7 °F 1017.8 in Calm     95 % 0.0 in
05:32 5.2 °F 4.5 °F 1017.8 in Calm     95 % 0.0 in
05:37 5.3 °F 4.7 °F 1017.8 in Calm   1.6 mph 96 % 0.0 in
05:42 5.3 °F 4.6 °F 1017.8 in North 1.6 mph 1.6 mph 95 % 0.0 in
05:47 5.2 °F 4.5 °F 1017.8 in NNW 1.6 mph 3.2 mph 95 % 0.0 in
05:52 5.1 °F 4.4 °F 1017.8 in Calm   3.2 mph 95 % 0.0 in
05:57 4.9 °F 4.2 °F 1017.8 in Calm   3.2 mph 95 % 0.0 in
06:02 5.1 °F 4.5 °F 1017.8 in Calm   1.6 mph 96 % 0.0 in
06:12 5.1 °F 4.5 °F 1017.8 in Calm   1.6 mph 96 % 0.0 in
06:17 5.1 °F 4.5 °F 1017.5 in Calm   1.6 mph 96 % 0.0 in
06:22 5.2 °F 4.6 °F 1017.8 in Calm   1.6 mph 96 % 0.0 in
06:32 5.1 °F 4.5 °F 1017.8 in North 1.6 mph 1.6 mph 96 % 0.0 in
06:37 5.1 °F 4.5 °F 1017.8 in Calm   1.6 mph 96 % 0.0 in
06:42 5.2 °F 4.6 °F 1017.8 in Calm   1.6 mph 96 % 0.0 in
06:47 5.3 °F 4.7 °F 1017.8 in Calm   1.6 mph 96 % 0.0 in
06:52 5.4 °F 4.7 °F 1017.8 in NNW 1.6 mph 1.6 mph 95 % 0.0 in
07:02 5.7 °F 5.0 °F 1017.8 in Calm   3.2 mph 95 % 0.0 in
07:12 5.9 °F 5.2 °F 1017.5 in Calm   1.6 mph 95 % 0.0 in
07:17 6.0 °F 5.3 °F 1017.8 in North 1.6 mph   95 % 0.0 in
07:22 6.0 °F 5.1 °F 1017.5 in Calm   1.6 mph 94 % 0.0 in
07:32 6.0 °F 5.3 °F 1017.8 in NE 3.2 mph 4.8 mph 95 % 0.0 in
07:37 6.3 °F 5.6 °F 1017.8 in NE 3.2 mph 6.4 mph 95 % 0.0 in
07:42 6.4 °F 5.5 °F 1017.8 in NNE 3.2 mph 6.4 mph 94 % 0.0 in
07:47 6.7 °F 5.8 °F 1017.8 in NNW 3.2 mph 6.4 mph 94 % 0.0 in
07:52 6.8 °F 5.9 °F 1017.8 in NE 4.8 mph 6.4 mph 94 % 0.0 in
07:57 7.1 °F 6.2 °F 1017.5 in NE 4.8 mph 6.4 mph 94 % 0.0 in
08:02 7.3 °F 6.2 °F 1017.5 in NE 6.4 mph 8.0 mph 93 % 0.0 in
08:12 7.8 °F 6.7 °F 1017.5 in NE 6.4 mph 11.3 mph 93 % 0.0 in
08:17 8.1 °F 6.9 °F 1017.5 in NNE 6.4 mph 11.3 mph 92 % 0.0 in
08:22 8.3 °F 6.9 °F 1017.5 in North 3.2 mph 9.7 mph 91 % 0.0 in
08:32 8.8 °F 7.2 °F 1017.5 in Calm   8.0 mph 90 % 0.0 in
08:37 9.1 °F 7.5 °F 1017.5 in NNE 3.2 mph 8.0 mph 90 % 0.0 in
08:42 9.6 °F 8.0 °F 1017.5 in Calm   6.4 mph 90 % 0.0 in
08:47 10.0 °F 8.4 °F 1017.8 in Calm   6.4 mph 90 % 0.0 in
08:52 10.2 °F 8.1 °F 1017.8 in Calm   6.4 mph 87 % 0.0 in
08:57 10.6 °F 8.5 °F 1017.8 in Calm   6.4 mph 87 % 0.0 in
09:02 10.7 °F 8.3 °F 1017.5 in East 4.8 mph 4.8 mph 85 % 0.0 in
09:12 10.6 °F 8.0 °F 1017.5 in East 1.6 mph 8.0 mph 84 % 0.0 in
09:17 10.7 °F 8.3 °F 1017.5 in NE 3.2 mph 8.0 mph 85 % 0.0 in
09:22 11.0 °F 8.6 °F 1017.5 in Calm   8.0 mph 85 % 0.0 in
09:32 11.3 °F 8.7 °F 1017.5 in ENE 3.2 mph 9.7 mph 84 % 0.0 in
09:37 11.6 °F 9.0 °F 1017.5 in NE 4.8 mph 9.7 mph 84 % 0.0 in
09:42 11.7 °F 8.9 °F 1017.5 in NE 3.2 mph 8.0 mph 83 % 0.0 in
09:47 11.8 °F 9.0 °F 1017.5 in ENE 8.0 mph 11.3 mph 83 % 0.0 in
09:52 11.8 °F 9.2 °F 1017.5 in NE 8.0 mph 12.9 mph 84 % 0.0 in
09:57 12.1 °F 9.3 °F 1017.2 in NE 3.2 mph 12.9 mph 83 % 0.0 in
10:02 12.3 °F 9.3 °F 1017.2 in NE 4.8 mph 12.9 mph 82 % 0.0 in
10:07 12.7 °F 9.7 °F 1017.2 in East 4.8 mph 11.3 mph 82 % 0.0 in
10:12 12.8 °F 9.6 °F 1017.2 in East 8.0 mph 12.9 mph 81 % 0.0 in
10:17 12.9 °F 9.0 °F 1017.2 in ENE 8.0 mph 14.5 mph 77 % 0.0 in
10:22 13.2 °F 9.6 °F 1017.2 in East 6.4 mph 14.5 mph 79 % 0.0 in
10:27 13.3 °F 9.4 °F 1017.2 in ENE 9.7 mph 14.5 mph 77 % 0.0 in
10:32 13.2 °F 9.3 °F 1017.2 in East 4.8 mph 14.5 mph 77 % 0.0 in
10:37 13.4 °F 9.6 °F 1017.2 in East 8.0 mph 14.5 mph 78 % 0.0 in
10:42 13.5 °F 9.2 °F 1016.8 in ENE 3.2 mph 17.7 mph 75 % 0.0 in
10:47 13.8 °F 9.6 °F 1016.8 in NE 9.7 mph 17.7 mph 76 % 0.0 in
10:52 14.1 °F 9.3 °F 1016.8 in East 8.0 mph 12.9 mph 73 % 0.0 in
10:57 14.2 °F 9.4 °F 1016.8 in NE 9.7 mph 16.1 mph 73 % 0.0 in
11:02 14.3 °F 8.9 °F 1016.8 in ENE 11.3 mph 17.7 mph 70 % 0.0 in
11:12 14.7 °F 8.9 °F 1016.5 in East 8.0 mph 17.7 mph 68 % 0.0 in
11:17 15.0 °F 9.1 °F 1016.5 in NE 6.4 mph 17.7 mph 68 % 0.0 in
11:22 15.1 °F 9.0 °F 1016.5 in ENE 6.4 mph 17.7 mph 67 % 0.0 in
11:27 15.2 °F 9.3 °F 1016.5 in ENE 8.0 mph 17.7 mph 68 % 0.0 in
11:32 15.3 °F 9.0 °F 1016.5 in ENE 8.0 mph 17.7 mph 66 % 0.0 in
11:37 15.5 °F 9.2 °F 1016.5 in NE 11.3 mph 17.7 mph 66 % 0.0 in
11:42 15.7 °F 8.9 °F 1016.5 in NE 8.0 mph 17.7 mph 64 % 0.0 in
11:47 15.7 °F 8.4 °F 1016.5 in ENE 9.7 mph 19.3 mph 62 % 0.0 in
11:52 15.8 °F 9.0 °F 1016.1 in ENE 14.5 mph 22.5 mph 64 % 0.0 in
11:57 16.0 °F 9.2 °F 1016.1 in NE 11.3 mph 22.5 mph 64 % 0.0 in
12:02 15.9 °F 8.4 °F 1016.1 in ENE 8.0 mph 20.9 mph 61 % 0.0 in
12:07 16.2 °F 8.7 °F 1016.1 in East 9.7 mph 20.9 mph 61 % 0.0 in
12:12 16.3 °F 8.8 °F 1016.1 in ENE 14.5 mph 19.3 mph 61 % 0.0 in
12:17 16.2 °F 8.7 °F 1016.1 in East 12.9 mph 22.5 mph 61 % 0.0 in
12:22 16.3 °F 8.0 °F 1016.1 in East 11.3 mph 24.1 mph 58 % 0.0 in
12:27 16.5 °F 7.4 °F 1015.8 in ENE 12.9 mph 24.1 mph 55 % 0.0 in
12:32 16.6 °F 7.5 °F 1015.8 in ENE 19.3 mph 25.7 mph 55 % 0.0 in
12:42 16.9 °F 8.3 °F 1015.8 in East 9.7 mph 25.7 mph 57 % 0.0 in
12:47 16.8 °F 7.2 °F 1015.8 in ENE 16.1 mph 24.1 mph 53 % 0.0 in
12:52 16.9 °F 7.8 °F 1015.8 in ENE 4.8 mph 24.1 mph 55 % 0.0 in
12:57 17.2 °F 7.3 °F 1015.8 in ESE 6.4 mph 22.5 mph 52 % 0.0 in
13:02 17.2 °F 7.8 °F 1015.8 in NNE 11.3 mph 25.7 mph 54 % 0.0 in
13:07 17.4 °F 8.3 °F 1015.8 in ENE 9.7 mph 25.7 mph 55 % 0.0 in
13:12 17.3 °F 7.6 °F 1015.8 in ENE 4.8 mph 25.7 mph 53 % 0.0 in
13:17 17.5 °F 7.5 °F 1015.8 in East 12.9 mph 20.9 mph 52 % 0.0 in
13:22 17.6 °F 8.2 °F 1015.8 in ESE 3.2 mph 24.1 mph 54 % 0.0 in
13:32 17.6 °F 7.9 °F 1015.8 in East 9.7 mph 27.4 mph 53 % 0.0 in
13:37 17.8 °F 8.9 °F 1015.5 in NE 14.5 mph 27.4 mph 56 % 0.0 in
13:42 17.9 °F 9.0 °F 1015.5 in ENE 16.1 mph 22.5 mph 56 % 0.0 in
13:52 18.1 °F 8.9 °F 1015.5 in NE 9.7 mph 22.5 mph 55 % 0.0 in
13:57 18.1 °F 8.4 °F 1015.5 in ENE 8.0 mph 22.5 mph 53 % 0.0 in
14:02 18.1 °F 8.9 °F 1015.5 in East 12.9 mph 24.1 mph 55 % 0.0 in
14:07 18.6 °F 10.2 °F 1015.5 in ENE 3.2 mph 24.1 mph 58 % 0.0 in
14:12 18.4 °F 8.6 °F 1015.1 in East 3.2 mph 24.1 mph 53 % 0.0 in
14:17 18.7 °F 9.7 °F 1015.1 in SSW 4.8 mph 16.1 mph 56 % 0.0 in
14:22 19.1 °F 9.8 °F 1015.1 in East 9.7 mph 16.1 mph 55 % 0.0 in
14:27 19.3 °F 10.8 °F 1014.8 in ESE 4.8 mph 16.1 mph 58 % 0.0 in
14:32 18.8 °F 9.8 °F 1014.8 in East 12.9 mph 16.1 mph 56 % 0.0 in
14:37 18.8 °F 9.8 °F 1014.8 in ENE 12.9 mph 17.7 mph 56 % 0.0 in
14:42 18.8 °F 10.4 °F 1014.8 in ENE 8.0 mph 17.7 mph 58 % 0.0 in
14:47 19.0 °F 10.5 °F 1014.8 in East 4.8 mph 17.7 mph 58 % 0.0 in
14:52 19.1 °F 10.4 °F 1014.8 in SE 6.4 mph 17.7 mph 57 % 0.0 in
15:02 19.4 °F 10.1 °F 1014.4 in East 6.4 mph 11.3 mph 55 % 0.0 in
15:07 19.2 °F 9.9 °F 1014.4 in ENE 14.5 mph 14.5 mph 55 % 0.0 in
15:12 19.2 °F 9.7 °F 1014.4 in ESE 4.8 mph 19.3 mph 54 % 0.0 in
15:17 19.2 °F 9.9 °F 1014.4 in SSE 4.8 mph 19.3 mph 55 % 0.0 in
15:22 19.4 °F 10.9 °F 1014.4 in East 4.8 mph 19.3 mph 58 % 0.0 in
15:27 19.7 °F 10.4 °F 1014.1 in NE 6.4 mph 19.3 mph 55 % 0.0 in
15:32 19.4 °F 10.1 °F 1014.1 in ENE 3.2 mph 16.1 mph 55 % 0.0 in
15:37 19.4 °F 9.9 °F 1014.1 in East 11.3 mph 14.5 mph 54 % 0.0 in
15:42 19.8 °F 11.3 °F 1013.8 in NE 6.4 mph 17.7 mph 58 % 0.0 in
15:52 20.5 °F 11.4 °F 1013.8 in ESE 4.8 mph 19.3 mph 56 % 0.0 in
15:57 20.3 °F 9.5 °F 1013.8 in ESE 6.4 mph 19.3 mph 50 % 0.0 in
16:02 20.2 °F 8.8 °F 1013.4 in SE 6.4 mph 12.9 mph 48 % 0.0 in
16:07 20.2 °F 9.7 °F 1013.4 in ESE 3.2 mph 12.9 mph 51 % 0.0 in
16:12 20.2 °F 9.1 °F 1013.4 in ENE 6.4 mph 16.1 mph 49 % 0.0 in
16:17 19.9 °F 8.6 °F 1013.4 in East 9.7 mph 17.7 mph 48 % 0.0 in
16:22 20.2 °F 9.4 °F 1013.4 in East 12.9 mph 19.3 mph 50 % 0.0 in
16:27 20.2 °F 8.8 °F 1013.4 in ESE 6.4 mph 22.5 mph 48 % 0.0 in
16:32 20.0 °F 8.3 °F 1013.1 in ENE 8.0 mph 22.5 mph 47 % 0.0 in
16:37 20.1 °F 9.6 °F 1013.1 in ENE 8.0 mph 22.5 mph 51 % 0.0 in
16:42 20.0 °F 9.3 °F 1013.1 in ENE 4.8 mph 16.1 mph 50 % 0.0 in
16:47 19.6 °F 9.2 °F 1013.1 in ENE 9.7 mph 19.3 mph 51 % 0.0 in
16:52 19.5 °F 9.4 °F 1012.8 in ENE 9.7 mph 19.3 mph 52 % 0.0 in
16:57 19.6 °F 9.5 °F 1012.8 in NE 1.6 mph 16.1 mph 52 % 0.0 in
17:02 19.9 °F 9.2 °F 1012.8 in ENE 11.3 mph 16.1 mph 50 % 0.0 in
17:07 19.7 °F 8.7 °F 1012.8 in ENE 12.9 mph 25.7 mph 49 % 0.0 in
17:12 19.6 °F 8.3 °F 1012.8 in East 19.3 mph 25.7 mph 48 % 0.0 in
17:17 19.7 °F 8.7 °F 1012.8 in ENE 9.7 mph 25.7 mph 49 % 0.0 in
17:22 19.7 °F 8.4 °F 1012.4 in East 9.7 mph 22.5 mph 48 % 0.0 in
17:27 19.8 °F 8.8 °F 1012.4 in ENE 6.4 mph 22.5 mph 49 % 0.0 in
17:32 20.0 °F 9.3 °F 1012.4 in ENE 14.5 mph 22.5 mph 50 % 0.0 in
17:37 20.1 °F 9.1 °F 1012.4 in ENE 8.0 mph 20.9 mph 49 % 0.0 in
17:42 20.2 °F 9.1 °F 1012.4 in ESE 3.2 mph 19.3 mph 49 % 0.0 in
17:52 20.6 °F 8.9 °F 1012.4 in East 11.3 mph 19.3 mph 47 % 0.0 in
17:57 20.4 °F 8.7 °F 1012.4 in ESE 9.7 mph 19.3 mph 47 % 0.0 in
18:02 20.3 °F 8.9 °F 1012.1 in East 8.0 mph 19.3 mph 48 % 0.0 in
18:07 20.2 °F 8.5 °F 1011.7 in ENE 14.5 mph 19.3 mph 47 % 0.0 in
18:12 20.1 °F 8.4 °F 1011.7 in ENE 6.4 mph 19.3 mph 47 % 0.0 in
18:17 19.9 °F 8.3 °F 1011.7 in NE 6.4 mph 17.7 mph 47 % 0.0 in
18:22 19.6 °F 8.3 °F 1011.7 in East 11.3 mph 17.7 mph 48 % 0.0 in
18:32 19.3 °F 7.4 °F 1012.1 in East 4.8 mph 17.7 mph 46 % 0.0 in
18:42 19.3 °F 8.0 °F 1011.7 in ENE 4.8 mph 12.9 mph 48 % 0.0 in
18:47 19.3 °F 7.7 °F 1011.7 in ESE 4.8 mph 11.3 mph 47 % 0.0 in
18:52 19.2 °F 8.5 °F 1011.7 in SE 3.2 mph 11.3 mph 50 % 0.0 in
18:57 19.1 °F 8.1 °F 1011.7 in East 1.6 mph 9.7 mph 49 % 0.0 in
19:02 19.0 °F 8.6 °F 1011.7 in ESE 4.8 mph 8.0 mph 51 % 0.0 in
19:07 18.8 °F 8.7 °F 1011.7 in East 4.8 mph 8.0 mph 52 % 0.0 in
19:12 18.6 °F 8.3 °F 1011.7 in SE 3.2 mph 6.4 mph 51 % 0.0 in
19:22 18.4 °F 8.1 °F 1011.4 in East 1.6 mph 6.4 mph 51 % 0.0 in
19:27 18.3 °F 8.6 °F 1011.4 in East 3.2 mph 6.4 mph 53 % 0.0 in
19:32 18.3 °F 7.7 °F 1011.4 in ENE 3.2 mph 6.4 mph 50 % 0.0 in
19:37 18.3 °F 7.7 °F 1011.4 in ENE 3.2 mph 6.4 mph 50 % 0.0 in
19:42 18.2 °F 7.9 °F 1011.4 in SE 3.2 mph 12.9 mph 51 % 0.0 in
19:47 18.1 °F 7.8 °F 1011.4 in East 3.2 mph 12.9 mph 51 % 0.0 in
19:52 18.0 °F 8.0 °F 1011.1 in ESE 1.6 mph 9.7 mph 52 % 0.0 in
19:57 17.8 °F 8.1 °F 1011.1 in East 4.8 mph 9.7 mph 53 % 0.0 in
20:02 17.7 °F 8.3 °F 1011.1 in ESE 3.2 mph 9.7 mph 54 % 0.0 in
20:07 17.6 °F 8.2 °F 1011.1 in ENE 3.2 mph 8.0 mph 54 % 0.0 in
20:12 17.5 °F 8.1 °F 1011.1 in SE 6.4 mph 8.0 mph 54 % 0.0 in
20:17 17.4 °F 8.0 °F 1011.1 in East 4.8 mph 14.5 mph 54 % 0.0 in
20:22 17.2 °F 8.1 °F 1011.1 in ENE 4.8 mph 14.5 mph 55 % 0.0 in
20:27 17.2 °F 8.1 °F 1011.1 in East 3.2 mph 14.5 mph 55 % 0.0 in
20:32 17.1 °F 8.3 °F 1011.1 in East 3.2 mph 8.0 mph 56 % 0.0 in
20:37 17.0 °F 8.2 °F 1010.7 in East 4.8 mph 8.0 mph 56 % 0.0 in
20:42 16.9 °F 8.1 °F 1010.7 in East 4.8 mph 8.0 mph 56 % 0.0 in
20:52 16.7 °F 7.9 °F 1010.7 in East 4.8 mph 9.7 mph 56 % 0.0 in
20:57 16.6 °F 8.0 °F 1010.7 in ENE 3.2 mph 9.7 mph 57 % 0.0 in
21:02 16.4 °F 8.1 °F 1010.7 in ENE 6.4 mph 8.0 mph 58 % 0.0 in
21:07 16.2 °F 8.2 °F 1010.4 in East 4.8 mph 8.0 mph 59 % 0.0 in
21:12 16.2 °F 8.2 °F 1010.4 in ENE 3.2 mph 8.0 mph 59 % 0.0 in
21:17 16.2 °F 7.9 °F 1010.4 in ENE 4.8 mph 6.4 mph 58 % 0.0 in
21:22 16.3 °F 7.8 °F 1010.4 in ENE 8.0 mph 11.3 mph 57 % 0.0 in
21:27 16.2 °F 7.7 °F 1010.4 in East 8.0 mph 12.9 mph 57 % 0.0 in
21:32 16.2 °F 7.4 °F 1010.4 in ENE 6.4 mph 12.9 mph 56 % 0.0 in
21:37 16.2 °F 7.1 °F 1010.4 in East 8.0 mph 12.9 mph 55 % 0.0 in
21:42 16.2 °F 7.4 °F 1010.0 in ENE 14.5 mph 14.5 mph 56 % 0.0 in
21:47 16.1 °F 7.6 °F 1010.0 in ENE 9.7 mph 16.1 mph 57 % 0.0 in
21:52 15.6 °F 7.9 °F 1010.0 in ENE 9.7 mph 16.1 mph 60 % 0.0 in
21:57 15.2 °F 8.0 °F 1010.0 in ENE 9.7 mph 16.1 mph 62 % 0.0 in
22:02 15.0 °F 8.0 °F 1010.0 in ENE 8.0 mph 14.5 mph 63 % 0.0 in
22:07 14.7 °F 8.2 °F 1010.0 in ENE 6.4 mph 12.9 mph 65 % 0.0 in
22:12 14.6 °F 8.3 °F 1010.0 in ENE 4.8 mph 12.9 mph 66 % 0.0 in
22:17 14.6 °F 8.3 °F 1010.0 in ENE 6.4 mph 9.7 mph 66 % 0.0 in
22:22 14.5 °F 8.4 °F 1010.0 in ENE 9.7 mph 9.7 mph 67 % 0.0 in
22:27 14.4 °F 8.3 °F 1009.7 in ENE 6.4 mph 9.7 mph 67 % 0.0 in
22:32 14.3 °F 8.3 °F 1010.0 in ENE 4.8 mph 9.7 mph 67 % 0.0 in
22:37 14.3 °F 8.3 °F 1009.7 in NE 4.8 mph 9.7 mph 67 % 0.0 in
22:42 14.3 °F 8.0 °F 1009.7 in NE 4.8 mph 9.7 mph 66 % 0.0 in
22:47 14.4 °F 7.9 °F 1009.7 in NE 3.2 mph 9.7 mph 65 % 0.0 in
22:52 14.4 °F 7.9 °F 1009.7 in NE 3.2 mph 8.0 mph 65 % 0.0 in
22:57 14.2 °F 7.9 °F 1009.7 in NE 4.8 mph 9.7 mph 66 % 0.0 in
23:02 14.1 °F 8.1 °F 1009.4 in ENE 6.4 mph 9.7 mph 67 % 0.0 in
23:07 13.9 °F 7.9 °F 1009.4 in NE 8.0 mph 9.7 mph 67 % 0.0 in
23:12 13.7 °F 7.9 °F 1009.4 in NNE 3.2 mph 9.7 mph 68 % 0.0 in
23:17 13.6 °F 7.8 °F 1009.4 in NE 4.8 mph 9.7 mph 68 % 0.0 in
23:22 13.5 °F 7.7 °F 1009.4 in NE 6.4 mph 9.7 mph 68 % 0.0 in
23:27 13.6 °F 7.6 °F 1009.4 in NE 9.7 mph 12.9 mph 67 % 0.0 in
23:32 13.7 °F 7.7 °F 1009.4 in NE 6.4 mph 12.9 mph 67 % 0.0 in
23:37 13.6 °F 7.8 °F 1009.0 in NE 8.0 mph 12.9 mph 68 % 0.0 in
23:42 13.4 °F 7.6 °F 1009.0 in ENE 4.8 mph 11.3 mph 68 % 0.0 in
23:47 13.3 °F 7.7 °F 1009.0 in NNE 4.8 mph 11.3 mph 69 % 0.0 in
23:52 13.2 °F 7.6 °F 1009.0 in NNE 8.0 mph 11.3 mph 69 % 0.0 in
23:57 13.2 °F 7.6 °F 1009.0 in NE 8.0 mph 11.3 mph 69 % 0.0 in
Meteo18
Compliments of Weather Underground - 4 mb

Script developed by  Jim McMurry - jmcmurry@mwt.net Adapted for the template by  Wim van der Kuil - Leuven-Template.eu

You find our weather info also at:

European Weather Network

Weather Underground

Equipment we use:

Weather-station
Davis Vue

Weather-program
Meteobridge

Weather-server
Raspberry PI 2 B+

Provider
1 and 1

Davis Vue

Meteobridge

Raspberry PI 2 B+

1 and 1